createdAt,value
2022-10-22T00:04:48.035Z,89.80
2022-10-22T00:09:51.197Z,89.60
2022-10-22T00:14:55.582Z,89.90
2022-10-22T00:19:58.546Z,90.20
2022-10-22T00:25:01.502Z,90.50
2022-10-22T00:30:06.490Z,91.00
2022-10-22T00:35:09.717Z,91.10
2022-10-22T00:40:13.604Z,91.20
2022-10-22T00:45:22.330Z,91.10
2022-10-22T00:50:29.653Z,91.70
2022-10-22T00:55:34.504Z,91.90
2022-10-22T01:00:38.932Z,91.90
2022-10-22T01:05:45.368Z,92.10
2022-10-22T01:10:59.662Z,92.20
2022-10-22T01:16:11.428Z,92.60
2022-10-22T01:21:24.198Z,92.20
2022-10-22T01:26:38.061Z,92.50
2022-10-22T01:31:46.688Z,92.50
2022-10-22T01:36:50.618Z,92.40
2022-10-22T01:41:56.461Z,92.30
2022-10-22T01:47:10.535Z,92.10
2022-10-22T01:52:23.276Z,92.90
2022-10-22T01:57:35.208Z,93.10
2022-10-22T02:02:44.324Z,93.50
2022-10-22T02:07:51.169Z,93.70
2022-10-22T02:12:56.988Z,93.30
2022-10-22T02:18:01.942Z,93.70
2022-10-22T02:23:05.672Z,93.50
2022-10-22T02:28:14.858Z,93.50
2022-10-22T02:33:23.159Z,93.30
2022-10-22T02:38:27.968Z,93.10
2022-10-22T02:43:31.086Z,93.00
2022-10-22T02:48:35.367Z,93.30
2022-10-22T02:53:38.309Z,93.80
2022-10-22T02:58:41.317Z,94.20
2022-10-22T03:03:45.646Z,94.30
2022-10-22T03:08:48.701Z,94.50
2022-10-22T03:13:51.672Z,94.00
2022-10-22T03:18:56.001Z,93.70
2022-10-22T03:24:00.337Z,94.20
2022-10-22T03:29:03.669Z,94.60
2022-10-22T03:34:07.963Z,94.90
2022-10-22T03:39:13.784Z,95.00
2022-10-22T03:44:17.917Z,95.10
2022-10-22T03:49:22.199Z,95.10
2022-10-22T03:54:25.631Z,94.80
2022-10-22T03:59:28.785Z,94.40
2022-10-22T04:04:33.170Z,94.10
2022-10-22T04:09:36.774Z,94.00
2022-10-22T04:14:39.778Z,94.10
2022-10-22T04:19:44.140Z,94.10
2022-10-22T04:24:47.167Z,94.00
2022-10-22T04:29:50.183Z,94.50
2022-10-22T04:34:54.500Z,94.60
2022-10-22T04:39:58.301Z,94.20
2022-10-22T04:45:01.457Z,94.10
2022-10-22T04:50:06.731Z,94.20
2022-10-22T04:55:10.331Z,94.20
2022-10-22T05:00:13.715Z,94.20
2022-10-22T05:05:18.548Z,94.50
2022-10-22T05:10:21.506Z,94.90
2022-10-22T05:15:24.481Z,94.90
2022-10-22T05:20:28.841Z,94.90
2022-10-22T05:25:31.820Z,94.90
2022-10-22T05:30:34.782Z,94.80
2022-10-22T05:35:39.131Z,94.70
2022-10-22T05:40:42.261Z,94.70
2022-10-22T05:45:45.219Z,94.70
2022-10-22T05:50:50.778Z,94.80
2022-10-22T05:55:53.740Z,95.00
2022-10-22T06:01:02.124Z,95.40
2022-10-22T06:06:17.200Z,95.40
2022-10-22T06:11:21.147Z,94.90
2022-10-22T06:16:24.131Z,94.20
2022-10-22T06:21:28.893Z,94.20
2022-10-22T06:26:32.457Z,94.40
2022-10-22T06:31:36.969Z,94.30
2022-10-22T06:36:42.664Z,95.00
2022-10-22T06:41:46.039Z,93.40
2022-10-22T06:46:52.104Z,93.70
2022-10-22T06:51:56.436Z,93.50
2022-10-22T06:56:59.430Z,93.30
2022-10-22T07:02:02.541Z,92.90
2022-10-22T07:07:06.870Z,92.80
2022-10-22T07:12:09.834Z,92.80
2022-10-22T07:17:12.802Z,93.20
2022-10-22T07:22:17.183Z,93.00
2022-10-22T07:27:20.163Z,93.20
2022-10-22T07:32:23.965Z,92.80
2022-10-22T07:37:28.380Z,93.40
2022-10-22T07:42:31.344Z,92.70
2022-10-22T07:47:34.492Z,92.00
2022-10-22T07:52:39.111Z,92.40
2022-10-22T07:57:42.684Z,92.20
2022-10-22T08:02:45.717Z,92.70
2022-10-22T08:07:50.051Z,91.50
2022-10-22T08:12:53.045Z,91.90
2022-10-22T08:17:56.225Z,92.10
2022-10-22T08:23:00.578Z,91.70
2022-10-22T08:28:04.486Z,92.00
2022-10-22T08:33:07.680Z,92.10
2022-10-22T08:38:12.015Z,92.20
2022-10-22T08:43:39.098Z,91.50
2022-10-22T08:48:46.798Z,91.40
2022-10-22T08:54:06.915Z,91.60
2022-10-22T08:59:15.782Z,91.50
2022-10-22T09:04:25.159Z,91.60
2022-10-22T09:09:35.252Z,90.90
2022-10-22T09:14:38.242Z,91.10
2022-10-22T09:19:50.107Z,90.70
2022-10-22T09:25:00.408Z,89.90
2022-10-22T09:30:04.425Z,88.80
2022-10-22T09:35:12.257Z,88.30
2022-10-22T09:40:17.660Z,88.50
2022-10-22T09:45:22.521Z,88.90
2022-10-22T09:50:30.413Z,87.70
2022-10-22T09:55:34.717Z,87.60
2022-10-22T10:00:40.176Z,87.60
2022-10-22T10:05:44.093Z,87.60
2022-10-22T10:10:51.632Z,87.40
2022-10-22T10:15:59.118Z,86.50
2022-10-22T10:21:11.418Z,87.40
2022-10-22T10:26:20.536Z,85.90
2022-10-22T10:31:34.051Z,86.80
2022-10-22T10:36:45.512Z,86.90
2022-10-22T10:41:55.759Z,86.50
2022-10-22T10:47:12.446Z,86.10
2022-10-22T10:52:21.448Z,86.50
2022-10-22T10:57:39.557Z,86.30
2022-10-22T11:03:30.829Z,86.60
2022-10-22T11:08:37.731Z,86.20
2022-10-22T11:13:48.564Z,85.20
2022-10-22T11:18:56.755Z,82.10
2022-10-22T11:24:07.014Z,80.00
2022-10-22T11:29:16.355Z,76.70
2022-10-22T11:34:33.387Z,77.70
2022-10-22T11:39:43.330Z,76.40
2022-10-22T11:45:06.860Z,77.00
2022-10-22T11:50:29.127Z,75.80
2022-10-22T11:55:45.965Z,75.00
2022-10-22T12:00:51.007Z,73.20
2022-10-22T12:06:21.352Z,71.50
2022-10-22T12:11:27.128Z,73.70
2022-10-22T12:16:55.154Z,72.30
2022-10-22T12:22:03.259Z,69.70
2022-10-22T12:27:18.143Z,73.90
2022-10-22T12:32:30.207Z,75.30
2022-10-22T12:37:36.381Z,75.90
2022-10-22T12:42:40.644Z,76.90
2022-10-22T12:47:48.526Z,76.80
2022-10-22T12:52:51.622Z,76.20
2022-10-22T12:57:54.697Z,74.10
2022-10-22T13:03:01.574Z,70.20
2022-10-22T13:08:09.750Z,69.50
2022-10-22T13:13:31.682Z,70.90
2022-10-22T13:18:36.120Z,71.20
2022-10-22T13:23:39.173Z,70.20
2022-10-22T13:28:42.575Z,69.40
2022-10-22T13:33:52.387Z,71.40
2022-10-22T13:38:55.408Z,70.70
2022-10-22T13:43:58.831Z,69.30
2022-10-22T13:49:03.187Z,67.10
2022-10-22T13:54:11.920Z,66.50
2022-10-22T13:59:17.231Z,64.50
2022-10-22T14:04:23.980Z,64.00
2022-10-22T14:09:26.938Z,64.00
2022-10-22T14:14:29.851Z,67.00
2022-10-22T14:19:34.201Z,65.60
2022-10-22T14:24:37.198Z,65.40
2022-10-22T14:29:40.629Z,65.90
2022-10-22T14:34:46.796Z,64.70
2022-10-22T14:39:52.714Z,66.10
2022-10-22T14:44:55.829Z,65.70
2022-10-22T14:50:02.272Z,67.20
2022-10-22T14:55:05.924Z,66.50
2022-10-22T15:00:12.290Z,67.50
2022-10-22T15:05:17.520Z,67.90
2022-10-22T15:10:20.600Z,68.70
2022-10-22T15:15:24.575Z,67.60
2022-10-22T15:20:30.012Z,67.30
2022-10-22T15:25:33.295Z,67.30
2022-10-22T15:30:36.285Z,67.90
2022-10-22T15:35:40.581Z,68.70
2022-10-22T15:40:43.585Z,69.50
2022-10-22T15:45:57.503Z,69.40
2022-10-22T15:51:01.847Z,70.10
2022-10-22T15:56:05.321Z,71.60
2022-10-22T16:01:09.488Z,71.10
2022-10-22T16:06:13.902Z,71.40
2022-10-22T16:11:16.950Z,72.90
2022-10-22T16:16:19.895Z,73.60
2022-10-22T16:21:26.253Z,74.10
2022-10-22T16:26:29.360Z,74.30
2022-10-22T16:31:32.471Z,74.50
2022-10-22T16:36:38.288Z,74.60
2022-10-22T16:41:41.338Z,75.00
2022-10-22T16:46:44.340Z,75.90
2022-10-22T16:51:48.707Z,75.70
2022-10-22T16:56:51.673Z,78.10
2022-10-22T17:01:54.990Z,78.70
2022-10-22T17:06:59.391Z,78.20
2022-10-22T17:12:02.442Z,78.50
2022-10-22T17:17:05.601Z,79.40
2022-10-22T17:22:10.624Z,78.80
2022-10-22T17:27:15.153Z,81.50
2022-10-22T17:32:18.259Z,81.50
2022-10-22T17:37:22.736Z,81.70
2022-10-22T17:42:25.824Z,81.70
2022-10-22T17:47:28.792Z,81.00
2022-10-22T17:52:33.309Z,81.00
2022-10-22T17:57:36.255Z,82.60
2022-10-22T18:02:40.131Z,82.70
2022-10-22T18:07:44.825Z,83.30
2022-10-22T18:12:47.803Z,82.70
2022-10-22T18:17:50.862Z,84.00
2022-10-22T18:22:56.661Z,82.40
2022-10-22T18:27:59.730Z,83.70
2022-10-22T18:33:02.696Z,83.20
2022-10-22T18:38:07.035Z,84.20
2022-10-22T18:43:10.819Z,83.30
2022-10-22T18:48:15.478Z,83.10
2022-10-22T18:53:19.811Z,84.30
2022-10-22T18:58:22.830Z,85.20
2022-10-22T19:03:25.875Z,85.70
2022-10-22T19:08:30.318Z,83.90
2022-10-22T19:13:33.301Z,84.10
2022-10-22T19:18:38.522Z,84.90
2022-10-22T19:23:43.358Z,85.50
2022-10-22T19:28:46.742Z,85.40
2022-10-22T19:33:50.164Z,84.70
2022-10-22T19:38:54.854Z,85.20
2022-10-22T19:43:59.064Z,86.00
2022-10-22T19:49:03.177Z,87.10
2022-10-22T19:54:09.071Z,87.20
2022-10-22T19:59:12.486Z,85.70
2022-10-22T20:04:17.787Z,85.60
2022-10-22T20:09:22.220Z,85.70
2022-10-22T20:14:25.324Z,86.10
2022-10-22T20:19:29.318Z,86.10
2022-10-22T20:24:33.695Z,85.20
2022-10-22T20:29:36.653Z,86.10
2022-10-22T20:34:41.568Z,86.60
2022-10-22T20:39:45.902Z,86.90
2022-10-22T20:44:48.872Z,87.20
2022-10-22T20:49:51.914Z,87.60
2022-10-22T20:54:56.269Z,87.50
2022-10-22T20:59:59.425Z,89.10
2022-10-22T21:05:02.523Z,89.20
2022-10-22T21:10:07.839Z,89.00
2022-10-22T21:15:12.746Z,88.30
2022-10-22T21:20:17.128Z,89.00
2022-10-22T21:25:23.119Z,88.50
2022-10-22T21:30:26.081Z,87.90
2022-10-22T21:35:29.007Z,87.90
2022-10-22T21:40:33.412Z,89.10
2022-10-22T21:45:36.446Z,89.10
2022-10-22T21:50:40.879Z,89.20
2022-10-22T21:55:45.170Z,89.10
2022-10-22T22:00:50.898Z,88.90
2022-10-22T22:05:58.843Z,88.40
2022-10-22T22:11:05.604Z,89.00
2022-10-22T22:16:10.761Z,88.80
2022-10-22T22:21:15.669Z,88.40
2022-10-22T22:26:25.412Z,88.70
2022-10-22T22:31:32.991Z,88.90
2022-10-22T22:36:37.924Z,88.40
2022-10-22T22:41:42.857Z,88.30
2022-10-22T22:46:45.874Z,89.10
2022-10-22T22:51:50.425Z,89.50
2022-10-22T22:56:54.722Z,89.70
2022-10-22T23:01:57.690Z,90.20
2022-10-22T23:07:00.880Z,90.00
2022-10-22T23:12:05.697Z,90.00
2022-10-22T23:17:08.657Z,90.00
2022-10-22T23:22:11.614Z,90.40
2022-10-22T23:27:15.881Z,91.10
2022-10-22T23:32:18.835Z,91.10
2022-10-22T23:37:21.830Z,91.10
2022-10-22T23:42:26.261Z,91.20
2022-10-22T23:47:29.226Z,91.30
2022-10-22T23:52:32.194Z,91.50
2022-10-22T23:57:36.530Z,91.70
